Time;durP1;ratioP1;P1;durP2;ratioP2;P2;SDS_P1;SDS_P2;PMS_P1;PMS_P2;Temp;Humidity;BMP_temperature;BMP_pressure;BME280_temperature;BME280_humidity;BME280_pressure;Samples;Min_cycle;Max_cycle;Signal;HPM_P1;HPM_P2
2023/06/05 00:00:50;;;;;;;13.68;4.25;;;;;;;13.32;82.32;102033.06;5075907;28;20044;-75
2023/06/05 00:03:17;;;;;;;10.07;3.85;;;;;;;13.28;82.11;102027.03;5073192;28;20045;-75
2023/06/05 00:05:43;;;;;;;16.17;4.00;;;;;;;13.26;82.42;102028.94;5070151;28;20009;-75
2023/06/05 00:08:08;;;;;;;12.18;4.28;;;;;;;13.23;82.27;102039.09;5068013;28;20089;-75
2023/06/05 00:10:33;;;;;;;13.43;4.32;;;;;;;13.16;82.14;102033.22;5065709;28;20045;-75
2023/06/05 00:12:59;;;;;;;13.27;4.32;;;;;;;13.10;82.75;102037.22;5069124;28;20029;-75
2023/06/05 00:15:24;;;;;;;15.73;4.43;;;;;;;13.05;82.63;102038.47;5050266;28;20036;-75
2023/06/05 00:17:50;;;;;;;19.75;4.53;;;;;;;13.01;82.71;102035.09;5073054;28;20048;-75
2023/06/05 00:20:15;;;;;;;11.68;3.92;;;;;;;13.00;82.85;102040.59;5066975;28;20056;-75
2023/06/05 00:22:40;;;;;;;15.05;5.05;;;;;;;12.97;83.23;102044.34;5072651;28;20080;-75
2023/06/05 00:25:06;;;;;;;13.68;4.85;;;;;;;12.88;83.45;102036.84;5066380;28;20033;-75
2023/06/05 00:27:31;;;;;;;13.40;4.35;;;;;;;12.83;83.95;102039.00;5063097;28;20055;-75
2023/06/05 00:29:57;;;;;;;11.95;4.38;;;;;;;12.79;83.75;102041.00;5069552;28;20041;-75
2023/06/05 00:32:22;;;;;;;14.77;4.55;;;;;;;12.74;84.03;102033.19;5065307;28;20040;-74
2023/06/05 00:34:49;;;;;;;14.63;4.90;;;;;;;12.67;84.18;102031.84;5072612;28;20025;-75
2023/06/05 00:37:15;;;;;;;17.80;4.55;;;;;;;12.67;84.18;102039.09;5074090;28;20033;-75
2023/06/05 00:39:41;;;;;;;13.82;4.28;;;;;;;12.63;83.90;102026.75;5071568;28;20044;-75
2023/06/05 00:42:08;;;;;;;15.10;4.45;;;;;;;12.59;84.44;102031.47;5067436;28;20034;-75
2023/06/05 00:44:33;;;;;;;17.17;5.35;;;;;;;12.54;84.73;102029.06;5071526;28;20032;-75
2023/06/05 00:46:59;;;;;;;9.32;4.07;;;;;;;12.51;84.51;102029.25;5066345;28;20046;-75
2023/06/05 00:49:25;;;;;;;13.63;4.40;;;;;;;12.45;84.95;102028.78;5070700;28;20040;-74
2023/06/05 00:51:50;;;;;;;15.52;4.43;;;;;;;12.42;84.70;102029.84;5071553;28;20469;-75
2023/06/05 00:54:17;;;;;;;13.15;4.47;;;;;;;12.36;85.20;102033.78;5073112;28;20036;-75
2023/06/05 00:56:43;;;;;;;13.82;4.38;;;;;;;12.36;85.23;102036.47;5065874;28;20027;-75
2023/06/05 00:59:08;;;;;;;14.23;4.60;;;;;;;12.30;85.60;102035.97;5054419;28;20029;-74
2023/06/05 01:01:34;;;;;;;14.80;5.10;;;;;;;12.30;85.68;102031.47;5074002;28;20032;-74
2023/06/05 01:04:00;;;;;;;13.68;4.75;;;;;;;12.22;85.62;102034.63;5075388;28;20028;-75
2023/06/05 01:06:28;;;;;;;15.43;4.82;;;;;;;12.20;85.20;102025.78;5068656;28;20063;-75
2023/06/05 01:08:54;;;;;;;15.50;4.70;;;;;;;12.19;86.25;102032.13;5084637;28;20025;-75
2023/06/05 01:11:50;;;;;;;12.93;4.55;;;;;;;12.24;85.21;102038.09;5070687;28;20040;-75
2023/06/05 01:14:22;;;;;;;14.38;4.45;;;;;;;12.16;86.25;102028.75;5060282;28;20060;-74
2023/06/05 01:16:53;;;;;;;11.82;4.43;;;;;;;12.10;86.16;102023.75;5073062;28;20083;-74
2023/06/05 01:19:19;;;;;;;13.80;4.90;;;;;;;12.08;86.54;102029.22;5083846;28;20024;-74
2023/06/05 01:21:45;;;;;;;13.10;4.63;;;;;;;12.04;86.67;102019.59;5063968;28;20047;-74
2023/06/05 01:24:13;;;;;;;15.75;4.82;;;;;;;12.06;86.82;102017.66;5082553;28;20048;-74
2023/06/05 01:27:08;;;;;;;18.63;5.53;;;;;;;12.06;85.87;102023.94;5054942;28;20014;-74
2023/06/05 01:30:00;;;;;;;16.05;5.35;;;;;;;12.05;86.16;102026.72;5083304;28;20090;-74
2023/06/05 01:32:37;;;;;;;15.95;5.20;;;;;;;11.99;86.84;102017.19;5090476;28;20048;-74
2023/06/05 01:35:10;;;;;;;14.30;4.70;;;;;;;11.93;86.68;102022.91;5072023;28;20029;-74
2023/06/05 01:37:40;;;;;;;14.02;5.03;;;;;;;11.85;87.03;102023.34;5083327;28;20058;-75
2023/06/05 01:40:13;;;;;;;16.23;4.90;;;;;;;11.83;87.08;102027.97;5093590;28;20043;-75
2023/06/05 01:42:40;;;;;;;16.55;5.03;;;;;;;11.76;87.11;102023.91;5085182;28;20032;-74
2023/06/05 01:45:08;;;;;;;17.58;4.93;;;;;;;11.74;86.92;102015.03;5072146;28;20048;-74
2023/06/05 01:47:36;;;;;;;15.73;5.22;;;;;;;11.72;87.16;102012.44;5063592;28;20001;-74
2023/06/05 01:50:01;;;;;;;16.45;4.85;;;;;;;11.69;87.80;102009.94;5080449;28;20029;-74
2023/06/05 01:52:26;;;;;;;15.48;4.80;;;;;;;11.72;87.22;102011.56;5081424;28;20064;-74
2023/06/05 01:54:53;;;;;;;16.67;5.38;;;;;;;11.66;87.35;102009.25;5067251;28;20036;-75
2023/06/05 01:57:18;;;;;;;16.42;5.47;;;;;;;11.64;87.28;102006.66;5068284;28;20035;-74
2023/06/05 01:59:45;;;;;;;16.33;5.40;;;;;;;11.65;87.26;102007.50;5083675;28;20029;-74
2023/06/05 02:02:11;;;;;;;16.13;5.75;;;;;;;11.62;87.55;101997.78;5085149;28;20083;-74
2023/06/05 02:04:37;;;;;;;21.23;6.00;;;;;;;11.61;87.64;101998.75;5083383;28;20091;-74
2023/06/05 02:07:03;;;;;;;16.05;5.32;;;;;;;11.60;87.79;101996.16;5065553;28;20033;-74
2023/06/05 02:09:32;;;;;;;14.25;5.28;;;;;;;11.59;87.79;101997.13;5067431;28;20013;-74
2023/06/05 02:11:58;;;;;;;16.63;5.22;;;;;;;11.54;88.30;101994.69;5086912;28;20044;-74
2023/06/05 02:14:24;;;;;;;15.48;5.28;;;;;;;11.49;88.81;101997.66;5089043;28;20063;-74
2023/06/05 02:16:50;;;;;;;16.67;5.13;;;;;;;11.45;88.67;101990.72;5079533;28;20025;-74
2023/06/05 02:19:16;;;;;;;13.68;5.32;;;;;;;11.43;88.47;101995.31;5072835;28;20075;-74
2023/06/05 02:21:42;;;;;;;16.60;5.00;;;;;;;11.43;88.82;101997.16;5079992;28;20459;-74
2023/06/05 02:24:07;;;;;;;18.23;6.00;;;;;;;11.40;88.44;101998.19;5086574;28;20036;-74
2023/06/05 02:26:32;;;;;;;15.18;5.80;;;;;;;11.37;88.60;101992.97;5091824;28;20024;-74
2023/06/05 02:28:58;;;;;;;15.20;5.38;;;;;;;11.34;88.76;101987.78;5083516;28;20055;-74
2023/06/05 02:31:25;;;;;;;18.15;6.63;;;;;;;11.30;89.06;101987.13;5085063;28;20041;-74
2023/06/05 02:33:55;;;;;;;18.65;6.35;;;;;;;11.25;89.29;101988.31;5090498;28;20026;-74
2023/06/05 02:36:24;;;;;;;18.85;6.40;;;;;;;11.27;89.72;101991.78;5089827;28;20064;-75
2023/06/05 02:38:50;;;;;;;18.67;6.72;;;;;;;11.23;89.38;101988.41;5061916;28;20048;-74
2023/06/05 02:41:17;;;;;;;18.70;6.30;;;;;;;11.19;89.67;101985.03;5071395;28;20039;-74
2023/06/05 02:43:42;;;;;;;20.58;7.25;;;;;;;11.16;89.97;101982.50;5084020;28;20082;-74
2023/06/05 02:46:07;;;;;;;17.92;5.65;;;;;;;11.15;89.65;101982.59;5095481;28;20032;-74
2023/06/05 02:48:33;;;;;;;16.70;5.60;;;;;;;11.14;89.84;101983.53;5096053;28;20050;-74
2023/06/05 02:50:58;;;;;;;15.43;5.38;;;;;;;11.11;89.88;101979.25;5085845;28;20033;-74
2023/06/05 02:53:23;;;;;;;17.33;5.72;;;;;;;11.12;90.04;101975.56;5064139;28;20039;-74
2023/06/05 02:55:49;;;;;;;20.40;6.28;;;;;;;11.10;90.18;101974.81;5077585;28;20025;-74
2023/06/05 02:58:17;;;;;;;17.00;5.72;;;;;;;11.06;90.52;101975.94;5093502;28;20085;-74
2023/06/05 03:00:44;;;;;;;21.00;5.90;;;;;;;11.02;90.65;101977.06;5095116;28;20044;-74
2023/06/05 03:03:10;;;;;;;17.85;6.10;;;;;;;11.00;91.02;101982.53;5067312;28;20050;-74
2023/06/05 03:05:36;;;;;;;15.63;5.70;;;;;;;10.97;90.54;101973.78;5072719;28;20021;-74
2023/06/05 03:08:03;;;;;;;16.85;6.05;;;;;;;10.97;89.80;101977.31;5075417;28;20101;-74
2023/06/05 03:10:28;;;;;;;22.70;7.28;;;;;;;10.96;90.63;101978.25;5094700;28;20017;-74
2023/06/05 03:12:54;;;;;;;19.02;6.15;;;;;;;10.93;90.87;101980.28;5092785;28;20067;-74
2023/06/05 03:15:19;;;;;;;21.83;6.68;;;;;;;10.96;90.37;101974.72;5090515;28;20029;-74
2023/06/05 03:17:45;;;;;;;17.80;5.75;;;;;;;10.92;90.68;101978.53;5094574;28;20044;-74
2023/06/05 03:20:12;;;;;;;18.65;6.75;;;;;;;10.90;90.78;101977.75;5077092;28;20027;-74
2023/06/05 03:22:38;;;;;;;21.33;7.18;;;;;;;10.84;90.88;101969.06;5066350;28;20055;-74
2023/06/05 03:25:04;;;;;;;19.02;6.38;;;;;;;10.86;91.14;101976.19;5072345;28;20032;-74
2023/06/05 03:27:29;;;;;;;17.27;6.35;;;;;;;10.80;90.87;101967.50;5093755;28;20020;-74
2023/06/05 03:29:56;;;;;;;17.92;6.82;;;;;;;10.79;91.16;101970.28;5075919;28;20040;-74
2023/06/05 03:32:21;;;;;;;18.88;7.15;;;;;;;10.79;91.60;101968.47;5068646;28;20062;-74
2023/06/05 03:34:48;;;;;;;18.10;6.25;;;;;;;10.78;91.66;101963.19;5090962;28;20032;-74
2023/06/05 03:37:14;;;;;;;18.65;6.10;;;;;;;10.77;91.78;101954.22;5068698;28;20028;-74
2023/06/05 03:39:39;;;;;;;18.33;6.05;;;;;;;10.77;90.91;101956.94;5092798;28;20036;-74
2023/06/05 03:42:09;;;;;;;21.30;6.70;;;;;;;10.78;91.31;101952.44;5075774;28;20028;-74
2023/06/05 03:44:37;;;;;;;19.55;6.95;;;;;;;10.82;91.13;101953.97;5094026;28;20059;-74
2023/06/05 03:47:03;;;;;;;18.67;6.60;;;;;;;10.78;91.53;101958.66;5089251;28;20088;-74
2023/06/05 03:49:29;;;;;;;20.50;6.95;;;;;;;10.79;91.69;101959.53;5091584;28;20040;-74
2023/06/05 03:52:00;;;;;;;18.92;7.28;;;;;;;10.76;91.17;101960.59;5082281;28;20075;-74
2023/06/05 03:54:32;;;;;;;20.08;7.22;;;;;;;10.72;91.78;101964.41;5078922;28;20063;-74
2023/06/05 03:57:00;;;;;;;22.23;7.32;;;;;;;10.75;91.82;101960.69;5082280;28;20087;-74
2023/06/05 03:59:27;;;;;;;21.13;6.35;;;;;;;10.76;92.40;101965.97;5055704;28;20025;-74
2023/06/05 04:01:53;;;;;;;21.15;6.88;;;;;;;10.75;92.69;101963.38;5062660;28;20108;-74
2023/06/05 04:04:20;;;;;;;19.23;6.97;;;;;;;10.76;92.95;101965.06;5058496;28;20082;-74
2023/06/05 04:06:45;;;;;;;20.45;7.63;;;;;;;10.74;92.80;101959.78;5088958;28;20016;-74
2023/06/05 04:09:13;;;;;;;18.42;6.43;;;;;;;10.75;92.98;101958.84;5093464;28;20052;-74
2023/06/05 04:11:41;;;;;;;21.85;7.55;;;;;;;10.75;93.16;101964.22;5094093;28;20028;-74
2023/06/05 04:14:09;;;;;;;19.45;7.53;;;;;;;10.76;93.36;101965.97;5084150;28;20020;-74
2023/06/05 04:16:38;;;;;;;19.00;7.07;;;;;;;10.79;93.21;101967.59;5067298;28;20021;-74
2023/06/05 04:19:06;;;;;;;18.73;7.43;;;;;;;10.80;93.50;101964.81;5073258;28;20020;-74
2023/06/05 04:21:33;;;;;;;19.92;7.25;;;;;;;10.81;93.00;101963.88;5069259;28;20024;-74
2023/06/05 04:23:58;;;;;;;24.27;8.00;;;;;;;10.77;93.83;101967.69;5087386;28;20025;-74
2023/06/05 04:26:26;;;;;;;20.30;7.28;;;;;;;10.80;93.57;101972.03;5083944;28;20101;-74
2023/06/05 04:28:51;;;;;;;20.70;7.47;;;;;;;10.80;93.77;101972.03;5087866;28;20024;-74
2023/06/05 04:31:17;;;;;;;19.75;7.50;;;;;;;10.82;94.16;101976.38;5065954;28;20086;-74
2023/06/05 04:33:42;;;;;;;20.45;7.53;;;;;;;10.86;94.35;101973.50;5074892;28;20036;-74
2023/06/05 04:36:08;;;;;;;19.15;6.80;;;;;;;10.85;94.72;101972.66;5072317;28;20040;-74
2023/06/05 04:38:33;;;;;;;21.08;7.47;;;;;;;10.89;95.04;101976.03;5072843;28;20103;-74
2023/06/05 04:40:59;;;;;;;19.70;7.45;;;;;;;10.91;95.17;101976.78;5059210;28;20029;-74
2023/06/05 04:43:24;;;;;;;20.45;7.28;;;;;;;10.95;95.40;101976.56;5072199;28;20017;-74
2023/06/05 04:45:49;;;;;;;22.85;7.50;;;;;;;11.01;95.34;101978.00;5062805;28;20036;-75
2023/06/05 04:48:15;;;;;;;21.13;7.68;;;;;;;11.01;95.14;101980.69;5070441;28;20024;-74
2023/06/05 04:50:40;;;;;;;21.30;8.25;;;;;;;11.04;95.53;101987.72;5091482;28;20076;-74
2023/06/05 04:53:05;;;;;;;22.20;7.78;;;;;;;11.02;95.99;101990.50;5093306;28;20044;-74
2023/06/05 04:55:31;;;;;;;21.52;7.30;;;;;;;11.07;95.25;101987.53;5093085;28;20080;-74
2023/06/05 04:58:00;;;;;;;22.35;8.15;;;;;;;11.09;95.42;101977.59;5068286;28;20036;-75
2023/06/05 05:00:26;;;;;;;25.95;9.13;;;;;;;11.12;95.84;101980.94;5075741;28;20092;-75
2023/06/05 05:02:53;;;;;;;20.70;8.13;;;;;;;11.18;96.01;101983.28;5071971;28;20032;-75
2023/06/05 05:05:19;;;;;;;22.55;9.00;;;;;;;11.21;95.82;101989.47;5053507;28;20081;-75
2023/06/05 05:07:45;;;;;;;23.00;8.50;;;;;;;11.27;95.45;101992.66;5059016;28;20037;-75
2023/06/05 05:10:11;;;;;;;20.92;7.20;;;;;;;11.28;95.30;101985.47;5070458;28;20024;-75
2023/06/05 05:12:36;;;;;;;20.20;8.23;;;;;;;11.32;95.65;101985.19;5060346;28;20105;-75
2023/06/05 05:15:03;;;;;;;20.88;8.10;;;;;;;11.34;94.52;101987.78;5059956;28;20035;-75
2023/06/05 05:17:29;;;;;;;20.88;8.70;;;;;;;11.39;95.04;101979.44;5060795;28;20075;-75
2023/06/05 05:19:54;;;;;;;21.95;8.00;;;;;;;11.43;95.18;101987.25;5054333;28;20056;-75
2023/06/05 05:22:20;;;;;;;22.05;9.30;;;;;;;11.49;94.48;101977.94;5052905;28;20033;-75
2023/06/05 05:24:46;;;;;;;22.83;8.38;;;;;;;11.54;94.84;101983.94;5065342;28;20045;-75
2023/06/05 05:27:11;;;;;;;20.63;8.35;;;;;;;11.56;94.18;101975.75;5059453;28;20036;-75
2023/06/05 05:29:36;;;;;;;22.42;8.65;;;;;;;11.59;94.47;101980.97;5051300;28;20024;-75
2023/06/05 05:32:01;;;;;;;22.02;8.98;;;;;;;11.63;94.26;101980.69;5054747;28;20279;-75
2023/06/05 05:34:27;;;;;;;21.85;9.38;;;;;;;11.69;93.97;101982.16;5048780;28;20044;-74
2023/06/05 05:36:52;;;;;;;23.98;8.55;;;;;;;11.74;93.64;101984.56;5039692;28;20025;-75
2023/06/05 05:39:18;;;;;;;25.27;9.43;;;;;;;11.78;93.51;101986.97;5060581;28;20037;-75
2023/06/05 05:41:43;;;;;;;22.95;8.30;;;;;;;11.81;93.66;101984.09;5061507;28;20096;-75
2023/06/05 05:44:08;;;;;;;23.42;9.77;;;;;;;11.89;92.87;101983.66;5055562;28;20033;-75
2023/06/05 05:46:33;;;;;;;22.35;8.82;;;;;;;11.91;92.40;101986.25;5071184;28;20029;-75
2023/06/05 05:48:59;;;;;;;20.27;8.02;;;;;;;11.95;93.25;101985.09;5060146;28;20036;-75
2023/06/05 05:51:24;;;;;;;22.60;8.95;;;;;;;11.99;92.75;101983.97;5071809;28;20071;-75
2023/06/05 05:53:50;;;;;;;21.67;8.90;;;;;;;12.02;92.78;101984.66;5071831;28;20041;-75
2023/06/05 05:56:15;;;;;;;22.40;8.43;;;;;;;12.09;92.70;101984.28;5071838;28;20032;-75
2023/06/05 05:58:40;;;;;;;21.75;8.70;;;;;;;12.16;91.54;101989.19;5074652;28;20023;-75
2023/06/05 06:01:06;;;;;;;22.67;9.60;;;;;;;12.21;91.01;101988.88;5072491;28;20097;-75
2023/06/05 06:03:33;;;;;;;23.15;10.00;;;;;;;12.28;91.49;101997.47;5095193;28;20052;-75
2023/06/05 06:05:58;;;;;;;22.27;9.63;;;;;;;12.32;90.05;102001.72;5093977;28;20012;-75
2023/06/05 06:08:24;;;;;;;20.83;7.68;;;;;;;12.38;90.95;101998.63;5096283;28;20080;-75
2023/06/05 06:10:50;;;;;;;22.55;9.38;;;;;;;12.41;90.69;101995.75;5096092;28;20029;-74
2023/06/05 06:13:15;;;;;;;21.45;8.70;;;;;;;12.47;89.89;101998.03;5095338;28;20036;-75
2023/06/05 06:15:40;;;;;;;22.08;9.57;;;;;;;12.53;89.32;102005.78;5095230;28;20469;-75
2023/06/05 06:18:11;;;;;;;26.65;9.75;;;;;;;12.57;88.18;102011.81;5095583;28;20072;-75
2023/06/05 06:20:36;;;;;;;25.17;9.93;;;;;;;12.64;89.24;102009.63;5075619;28;20028;-77
2023/06/05 06:23:05;;;;;;;20.65;8.23;;;;;;;12.71;88.04;102011.81;5057281;28;20384;-73
2023/06/05 06:25:31;;;;;;;23.20;9.38;;;;;;;12.77;88.84;102002.47;5038820;28;20028;-74
2023/06/05 06:27:57;;;;;;;20.85;7.68;;;;;;;12.82;87.49;102004.88;5042024;28;20031;-74
2023/06/05 06:30:22;;;;;;;23.15;9.25;;;;;;;12.88;87.46;102004.47;5050611;28;20091;-73
2023/06/05 06:32:48;;;;;;;22.35;9.48;;;;;;;12.94;86.70;102012.16;5048925;28;20029;-73
2023/06/05 06:35:13;;;;;;;25.02;9.20;;;;;;;12.99;86.56;102006.47;5066917;28;20522;-73
2023/06/05 06:37:40;;;;;;;21.63;9.52;;;;;;;13.04;86.65;102007.03;5044706;28;20029;-73
2023/06/05 06:40:09;;;;;;;26.55;8.90;;;;;;;13.07;86.36;102004.13;5027215;28;20048;-73
2023/06/05 06:42:35;;;;;;;23.85;8.32;;;;;;;13.10;85.12;102002.13;5036609;28;20091;-74
2023/06/05 06:45:01;;;;;;;24.30;9.95;;;;;;;13.16;84.92;102013.47;5050044;28;20381;-75
2023/06/05 06:47:26;;;;;;;22.35;8.82;;;;;;;13.23;85.94;102007.56;5060091;28;20032;-76
2023/06/05 06:49:52;;;;;;;22.25;8.57;;;;;;;13.28;86.07;102002.72;5054698;28;20063;-76
2023/06/05 06:52:19;;;;;;;23.67;8.88;;;;;;;13.33;84.86;102005.13;5055752;28;20495;-75
2023/06/05 06:54:45;;;;;;;21.92;8.80;;;;;;;13.41;86.06;102010.03;5053261;28;20032;-75
2023/06/05 06:57:10;;;;;;;24.90;9.38;;;;;;;13.48;86.04;102014.06;5062238;28;20035;-74
2023/06/05 06:59:36;;;;;;;22.25;9.93;;;;;;;13.54;85.11;102007.38;5051303;28;20028;-74
2023/06/05 07:02:15;;;;;;;25.98;8.57;;;;;;;13.58;85.59;102020.56;5047784;28;20042;-74
2023/06/05 07:04:43;;;;;;;22.15;9.05;;;;;;;13.62;83.97;102015.84;5052887;28;20091;-74
2023/06/05 07:07:10;;;;;;;22.33;8.98;;;;;;;13.66;84.39;102016.47;5041215;28;20089;-74
2023/06/05 07:09:36;;;;;;;22.20;9.07;;;;;;;13.73;85.04;102023.22;5052157;28;20094;-74
2023/06/05 07:12:04;;;;;;;30.08;8.65;;;;;;;13.76;83.22;102020.28;5050265;28;20050;-74
2023/06/05 07:14:31;;;;;;;24.73;9.88;;;;;;;13.81;83.11;102027.13;5049214;28;20029;-74
2023/06/05 07:16:58;;;;;;;21.02;8.38;;;;;;;13.90;84.11;102025.63;5052645;28;20037;-74
2023/06/05 07:19:24;;;;;;;23.67;9.93;;;;;;;13.94;83.92;102032.56;5052509;28;20028;-74
2023/06/05 07:21:50;;;;;;;24.35;9.75;;;;;;;13.99;83.10;102027.69;5052144;28;20025;-74
2023/06/05 07:24:18;;;;;;;26.27;10.48;;;;;;;14.07;83.13;102023.59;5051162;28;20032;-74
2023/06/05 07:26:43;;;;;;;25.50;9.85;;;;;;;14.09;81.32;102025.22;5050852;28;20400;-74
2023/06/05 07:29:10;;;;;;;22.40;9.10;;;;;;;14.14;81.41;102030.28;5051633;28;20033;-76
2023/06/05 07:31:36;;;;;;;20.65;9.00;;;;;;;14.25;83.66;102025.00;5070472;28;20024;-76
2023/06/05 07:34:02;;;;;;;21.70;8.93;;;;;;;14.29;83.55;102025.66;5060192;28;20025;-78
2023/06/05 07:36:29;;;;;;;22.70;9.35;;;;;;;14.30;81.36;102030.94;5062071;28;20035;-73
2023/06/05 07:38:54;;;;;;;21.02;7.55;;;;;;;14.40;83.00;102031.19;5044441;28;20029;-72
2023/06/05 07:41:20;;;;;;;25.38;10.40;;;;;;;14.45;82.03;102028.13;5039170;28;20032;-73
2023/06/05 07:43:45;;;;;;;23.17;9.50;;;;;;;14.48;79.89;102025.22;5052265;28;20029;-73
2023/06/05 07:46:11;;;;;;;23.85;9.73;;;;;;;14.54;81.37;102034.72;5046539;28;20151;-72
2023/06/05 07:48:36;;;;;;;23.75;9.85;;;;;;;14.56;80.94;102033.66;5032227;28;20029;-73
2023/06/05 07:51:01;;;;;;;23.33;9.40;;;;;;;14.58;79.05;102034.41;5051879;28;20068;-73
2023/06/05 07:53:27;;;;;;;22.60;9.07;;;;;;;14.65;80.44;102024.91;5051063;28;20479;-73
2023/06/05 07:55:52;;;;;;;20.27;8.32;;;;;;;14.67;78.43;102020.25;5050500;28;20071;-73
2023/06/05 07:58:18;;;;;;;23.05;7.78;;;;;;;14.73;80.89;102028.91;5052297;28;20388;-72
2023/06/05 08:00:47;;;;;;;22.50;7.88;;;;;;;14.78;78.61;102032.16;5052126;28;20056;-73
2023/06/05 08:03:21;;;;;;;23.02;8.77;;;;;;;14.87;80.00;102028.78;5034438;28;20056;-72
2023/06/05 08:05:48;;;;;;;22.65;9.45;;;;;;;14.93;78.95;102025.59;5050541;28;20036;-72
2023/06/05 08:08:13;;;;;;;27.45;9.43;;;;;;;14.98;79.05;102022.59;5050004;28;20029;-73
2023/06/05 08:10:40;;;;;;;26.02;9.18;;;;;;;15.02;78.19;102027.66;5051535;28;20487;-73
2023/06/05 08:13:08;;;;;;;21.55;7.95;;;;;;;15.12;79.45;102018.84;5046345;28;20056;-73
2023/06/05 08:15:33;;;;;;;24.17;9.00;;;;;;;15.23;81.10;102013.50;5043388;28;20074;-72
2023/06/05 08:17:59;;;;;;;21.30;7.88;;;;;;;15.30;79.29;102022.03;5045507;28;20017;-72
2023/06/05 08:20:24;;;;;;;21.52;8.30;;;;;;;15.32;77.43;102015.53;5046687;28;20459;-72
2023/06/05 08:22:49;;;;;;;19.25;7.72;;;;;;;15.35;76.77;102019.84;5049232;28;20429;-72
2023/06/05 08:25:15;;;;;;;21.60;8.25;;;;;;;15.43;79.25;102016.56;5040048;28;20129;-72
2023/06/05 08:27:40;;;;;;;19.90;7.97;;;;;;;15.49;76.61;102011.56;5049750;28;20021;-72
2023/06/05 08:30:06;;;;;;;21.80;8.45;;;;;;;15.56;76.25;102009.22;5043291;28;20362;-72
2023/06/05 08:32:32;;;;;;;20.30;7.60;;;;;;;15.61;75.63;102003.44;5051589;28;20028;-72
2023/06/05 08:34:57;;;;;;;21.67;7.82;;;;;;;15.68;75.42;102004.72;5037884;28;20029;-72
2023/06/05 08:37:23;;;;;;;22.30;7.85;;;;;;;15.73;74.74;102003.38;5051377;28;20043;-72
2023/06/05 08:39:49;;;;;;;21.25;7.65;;;;;;;15.81;76.86;101999.25;5052878;28;20025;-72
2023/06/05 08:42:18;;;;;;;19.50;7.70;;;;;;;15.85;76.50;101998.03;5043146;28;20100;-72
2023/06/05 08:44:47;;;;;;;25.30;8.25;;;;;;;15.91;75.78;102000.25;5047487;28;20091;-72
2023/06/05 08:47:14;;;;;;;21.67;8.50;;;;;;;15.95;75.64;101990.91;5048278;28;20169;-72
2023/06/05 08:49:41;;;;;;;23.73;9.40;;;;;;;16.01;76.09;101997.72;5048461;28;20083;-70
2023/06/05 08:52:08;;;;;;;21.95;7.85;;;;;;;16.08;75.65;101994.38;5042657;28;20040;-69
2023/06/05 08:54:38;;;;;;;22.45;8.50;;;;;;;16.12;75.50;101992.31;5047660;28;20032;-70
2023/06/05 08:57:06;;;;;;;22.95;7.97;;;;;;;16.17;74.86;101997.38;5037189;28;20116;-70
2023/06/05 08:59:32;;;;;;;19.95;7.18;;;;;;;16.18;72.75;101999.06;5049950;28;20052;-70
2023/06/05 09:01:57;;;;;;;23.58;8.65;;;;;;;16.22;73.31;102000.56;5051399;28;20503;-70
2023/06/05 09:04:29;;;;;;;24.65;7.80;;;;;;;16.29;73.43;101998.25;5057536;28;20032;-70
2023/06/05 09:06:58;;;;;;;20.48;7.85;;;;;;;16.36;73.96;101996.78;5069199;28;20016;-70
2023/06/05 09:09:28;;;;;;;21.45;8.85;;;;;;;16.38;72.01;101994.78;5054353;28;20480;-69
2023/06/05 09:12:07;;;;;;;25.58;8.13;;;;;;;16.45;73.49;101989.75;5060143;28;20025;-70
2023/06/05 09:14:33;;;;;;;21.52;6.80;;;;;;;16.55;74.87;101990.75;5061228;28;20041;-70
2023/06/05 09:17:00;;;;;;;19.05;7.10;;;;;;;16.64;73.62;101998.13;5060107;28;20571;-69
2023/06/05 09:19:36;;;;;;;21.08;7.60;;;;;;;16.66;72.19;101995.28;5049630;28;20085;-69
2023/06/05 09:22:01;;;;;;;18.65;6.90;;;;;;;16.74;74.22;101990.97;5062187;28;20025;-70
2023/06/05 09:24:29;;;;;;;17.58;6.68;;;;;;;16.78;72.57;101988.88;5070640;28;20392;-70
2023/06/05 09:26:58;;;;;;;21.48;6.85;;;;;;;16.88;72.53;101986.28;5047515;28;20510;-70
2023/06/05 09:29:28;;;;;;;21.02;7.45;;;;;;;16.97;75.08;101982.84;5067693;28;20043;-70
2023/06/05 09:31:56;;;;;;;18.88;6.47;;;;;;;17.03;75.08;101987.75;5048944;28;20063;-70
2023/06/05 09:34:23;;;;;;;19.27;7.00;;;;;;;17.08;73.31;101980.06;5074525;28;20028;-70
2023/06/05 09:36:48;;;;;;;22.27;7.32;;;;;;;17.15;73.38;101979.56;5073517;28;20024;-70
2023/06/05 09:39:18;;;;;;;18.83;7.10;;;;;;;17.18;71.21;101974.75;5070286;28;20029;-70
2023/06/05 09:41:48;;;;;;;20.65;7.13;;;;;;;17.21;69.02;101981.78;5074295;28;20021;-70
2023/06/05 09:44:14;;;;;;;19.08;6.10;;;;;;;17.28;73.68;101975.69;5075050;28;20051;-70
2023/06/05 09:47:00;;;;;;;22.92;6.35;;;;;;;17.30;71.47;101987.28;5074328;28;20025;-70
2023/06/05 09:49:46;;;;;;;19.35;6.65;;;;;;;17.39;72.27;101972.06;5074451;28;20038;-70
2023/06/05 09:52:13;;;;;;;21.42;7.18;;;;;;;17.45;71.48;101970.69;5061921;28;20109;-70
2023/06/05 09:54:44;;;;;;;21.33;7.43;;;;;;;17.44;69.38;101974.41;5074147;28;20446;-70
2023/06/05 09:57:11;;;;;;;20.65;7.50;;;;;;;17.49;70.42;101979.44;5073909;28;20044;-70
2023/06/05 09:59:55;;;;;;;20.20;6.80;;;;;;;17.48;69.64;101970.41;5073835;28;20032;-70
2023/06/05 10:02:25;;;;;;;20.48;6.70;;;;;;;17.59;72.26;101967.66;5060999;28;20381;-70
2023/06/05 10:05:00;;;;;;;20.90;6.82;;;;;;;17.66;70.67;101965.28;5055153;28;20097;-70
2023/06/05 10:07:27;;;;;;;20.52;6.82;;;;;;;17.73;71.77;101969.19;5073509;28;20036;-70
2023/06/05 10:09:53;;;;;;;21.40;7.00;;;;;;;17.82;70.92;101968.41;5073523;28;20456;-70
2023/06/05 10:12:20;;;;;;;18.70;6.80;;;;;;;17.90;71.38;101970.47;5073499;28;20028;-70
2023/06/05 10:14:47;;;;;;;19.23;6.93;;;;;;;17.93;68.37;101959.31;5050021;28;20452;-70
2023/06/05 10:17:13;;;;;;;19.02;7.45;;;;;;;17.97;70.13;101959.94;5073258;28;20206;-70
2023/06/05 10:19:44;;;;;;;17.90;6.90;;;;;;;18.02;71.10;101954.09;5055746;28;20028;-70
2023/06/05 10:22:11;;;;;;;20.08;6.50;;;;;;;18.02;70.68;101952.22;5054782;28;20395;-70
2023/06/05 10:24:58;;;;;;;18.10;7.18;;;;;;;18.10;71.57;101952.41;5066248;28;20029;-72
2023/06/05 10:27:48;;;;;;;19.15;6.47;;;;;;;18.20;70.28;101949.75;5060474;28;20451;-72
2023/06/05 10:30:35;;;;;;;20.20;6.97;;;;;;;18.25;68.79;101950.19;5063082;28;20092;-72
2023/06/05 10:33:36;;;;;;;20.55;7.28;;;;;;;18.31;69.86;101951.53;5066791;28;20035;-73
2023/06/05 10:36:19;;;;;;;17.48;6.88;;;;;;;18.37;67.83;101950.97;5060974;28;20039;-72
2023/06/05 10:38:45;;;;;;;19.05;6.68;;;;;;;18.47;68.52;101948.28;5050216;28;20031;-72
2023/06/05 10:41:11;;;;;;;17.90;6.65;;;;;;;18.48;65.05;101948.16;5069787;28;20028;-72
2023/06/05 10:43:47;;;;;;;19.35;6.60;;;;;;;18.60;71.13;101956.22;5066477;28;20028;-72
2023/06/05 10:46:27;;;;;;;23.00;6.40;;;;;;;18.63;68.50;101961.38;5071444;28;20025;-72
2023/06/05 10:49:05;;;;;;;19.00;6.30;;;;;;;18.66;68.80;101945.63;5061431;28;20032;-72
2023/06/05 10:51:42;;;;;;;16.73;5.93;;;;;;;18.76;68.46;101947.53;5070115;28;20504;-73
2023/06/05 10:54:08;;;;;;;19.48;6.63;;;;;;;18.81;66.13;101954.25;5050197;28;20070;-72
2023/06/05 10:56:53;;;;;;;20.27;6.43;;;;;;;18.84;66.83;101945.84;5053620;28;20081;-73
2023/06/05 10:59:20;;;;;;;19.58;7.47;;;;;;;18.92;64.61;101938.81;5053554;28;20052;-72
2023/06/05 11:02:09;;;;;;;17.08;6.13;;;;;;;18.97;66.33;101931.97;5042198;28;20044;-72
2023/06/05 11:04:46;;;;;;;17.60;6.35;;;;;;;18.98;67.45;101935.56;5070454;28;20020;-72
2023/06/05 11:07:21;;;;;;;18.17;6.57;;;;;;;19.03;65.39;101933.25;5034666;28;20029;-72
2023/06/05 11:10:01;;;;;;;18.17;5.90;;;;;;;19.08;67.44;101925.53;5072500;28;20020;-72
2023/06/05 11:12:47;;;;;;;21.08;6.78;;;;;;;19.14;65.72;101921.38;5037186;28;20036;-72
2023/06/05 11:15:23;;;;;;;21.63;6.55;;;;;;;19.26;65.21;101927.56;5033163;28;20093;-72
2023/06/05 11:17:48;;;;;;;22.73;7.03;;;;;;;19.31;65.96;101923.41;5061726;28;20059;-72
2023/06/05 11:20:23;;;;;;;20.05;6.63;;;;;;;19.27;65.69;101923.81;5043928;28;20136;-72